Airfield :
LOGIN :

Register | Disclaimer

   EN    FR    IT 

 










Legend :    VFR   Marginal VFR   IFR   Intensive IFR   Very Intensive IFR
Visi :
Ceiling :
>= 8 km
>= 3000ft
5 to 8 km
1000 to 3000 ft
1500m to 5 km
500 to 1000 ft
800 to 1500m
200 to 500 ft
< 800m
< 200 ft
Symbols :   Thunderstorms  Fog  Heavy snow  Heavy precipitations  Wind > 20 kt
SIGMETs :     Misc.  Thunderstorms  Icing  Turbulence  Mountain Waves  Volcanic Ashes







- Airport Elevation : 124 ft
- IATA code : NHT
- Download approach charts


EGWU - RAF Northolt

CURRENT METAR :
  • 141650Z 15004KT CAVOK 11/07 Q1020 NOSIG

EXPIRED METARs :
  • 141550Z 18006KT CAVOK 13/08 Q1021 NOSIG
  • 141450Z 19007KT CAVOK 14/07 Q1021 NOSIG

TAF TAF EGWU
Valid from the 14 at 18:00 until the 15 at 12:00 UTC


141630Z 1418/1512 16005KT CAVOK
BECMG 1419/1422 7000 BR FEW008 SCT018
TEMPO 1422/1512 BKN008
PROB30
TEMPO 1423/1509 3000 SCT006
BECMG 1509/1512 9999 NSW
No reported NOTAMs for that airfield.
1 SIGMET reported for the London FIR (EGTT) :
 
Severe mountain waves
EGTT SIGMET 05 VALID 141600/141930 EGRR
EGTT LONDON FIR SEV MTW FCST WI N5220 W00530 - N5500 W00530 - N5500 W00100 - N5500 E00132 - N5141 W00228 - N5201 W00606 - N5220 W00530 FL020/320 STNR NC=



MET'MAP, your aeronautical weather chart ! - Copyright ORBIFLY December 2007 - Disclaimer

ORBIFLY MET'MAP TEAM :

Programming & Development : Alexandra Zaïnal
Concept & Development : Baudouin d'Aumeries
Co-Development & Prog : Marc-Olivier Méhu
Technical & hardware support : Manuel Goepfert

Contact : metmap@orbifly.com




SOURCES & CREDITS :

   NOAA